Time;durP1;ratioP1;P1;durP2;ratioP2;P2;SDS_P1;SDS_P2;PMS_P1;PMS_P2;Temp;Humidity;BMP_temperature;BMP_pressure;BME280_temperature;BME280_humidity;BME280_pressure;Samples;Min_cycle;Max_cycle;Signal;HPM_P1;HPM_P2
2022/08/18 00:01:39;;;;;;;5.97;5.57;;;;;;;20.96;71.37;100040.94;5052688;28;20202;-79
2022/08/18 00:04:06;;;;;;;6.30;5.80;;;;;;;20.99;71.57;100038.09;5043271;28;20280;-80
2022/08/18 00:06:32;;;;;;;6.07;5.73;;;;;;;21.10;71.22;100050.63;5044032;28;20210;-80
2022/08/18 00:09:00;;;;;;;6.80;6.13;;;;;;;20.91;71.84;100053.69;5043600;28;20222;-81
2022/08/18 00:11:28;;;;;;;6.90;6.40;;;;;;;20.76;72.68;100030.84;5043501;28;20206;-81
2022/08/18 00:13:55;;;;;;;7.30;6.70;;;;;;;20.85;72.57;100021.41;5042641;28;20226;-81
2022/08/18 00:16:22;;;;;;;6.87;6.47;;;;;;;20.86;72.48;100029.28;5042123;28;20754;-81
2022/08/18 00:18:49;;;;;;;7.50;7.00;;;;;;;20.87;72.87;100016.84;5047674;28;20197;-80
2022/08/18 00:21:16;;;;;;;8.53;7.83;;;;;;;20.85;72.96;100006.34;5063367;28;20671;-80
2022/08/18 00:23:42;;;;;;;7.97;7.27;;;;;;;20.76;73.52;99994.56;5062308;28;20266;-79
2022/08/18 00:26:09;;;;;;;7.33;6.90;;;;;;;20.79;73.79;99991.72;5063491;28;20278;-79
2022/08/18 00:28:35;;;;;;;8.13;7.53;;;;;;;20.76;73.73;99994.56;5063740;28;20225;-79
2022/08/18 00:31:02;;;;;;;9.23;8.63;;;;;;;20.60;74.71;99976.19;5062429;28;20259;-80
2022/08/18 00:33:29;;;;;;;9.13;8.30;;;;;;;20.70;74.71;99964.97;5063434;28;20221;-81
2022/08/18 00:35:56;;;;;;;10.17;9.37;;;;;;;20.72;75.13;99960.41;5063177;28;20335;-80
2022/08/18 00:38:23;;;;;;;9.03;8.33;;;;;;;20.72;75.54;99955.09;5061539;28;20214;-80
2022/08/18 00:40:51;;;;;;;10.17;9.27;;;;;;;20.62;75.98;99949.59;5061280;28;20269;-81
2022/08/18 00:43:23;;;;;;;11.53;10.63;;;;;;;20.55;76.77;99933.19;5062139;28;20225;-77
2022/08/18 00:45:49;;;;;;;11.77;10.67;;;;;;;20.52;77.06;99919.31;5060258;28;20675;-80
2022/08/18 00:48:16;;;;;;;11.43;10.63;;;;;;;20.54;77.45;99920.06;5060988;28;20565;-80
2022/08/18 00:50:48;;;;;;;12.87;11.93;;;;;;;20.54;77.90;99906.81;5060680;28;20209;-80
2022/08/18 00:53:19;;;;;;;12.23;11.37;;;;;;;20.62;77.72;99910.63;5061451;28;20248;-79
2022/08/18 00:55:48;;;;;;;13.43;12.33;;;;;;;20.51;78.55;99905.19;5061075;28;20259;-80
2022/08/18 00:58:20;;;;;;;14.53;13.23;;;;;;;20.43;79.28;99891.63;5061440;28;20236;-80
2022/08/18 01:00:49;;;;;;;14.27;13.27;;;;;;;20.38;80.02;99869.91;5061386;28;20209;-81
2022/08/18 01:03:18;;;;;;;15.07;13.97;;;;;;;20.35;80.20;99862.97;5061197;28;20222;-79
2022/08/18 01:05:52;;;;;;;16.07;14.83;;;;;;;20.24;81.17;99845.19;5061348;28;20210;-80
2022/08/18 01:08:18;;;;;;;16.00;14.90;;;;;;;20.23;81.51;99838.16;5061395;28;20224;-80
2022/08/18 01:10:45;;;;;;;15.60;14.50;;;;;;;20.19;81.81;99835.84;5061743;28;20208;-80
2022/08/18 01:13:11;;;;;;;16.40;15.20;;;;;;;20.27;81.64;99851.22;5061885;28;20227;-80
2022/08/18 01:15:38;;;;;;;17.87;16.47;;;;;;;20.30;81.42;99866.94;5061763;28;20206;-80
2022/08/18 01:23:51;;;;;;;18.43;17.03;;;;;;;20.30;81.57;99870.41;5061925;28;20703;-81
2022/08/18 01:26:18;;;;;;;18.73;17.33;;;;;;;20.09;82.79;99851.50;5060100;28;20205;-80
2022/08/18 01:28:48;;;;;;;18.80;17.27;;;;;;;20.04;83.59;99832.47;5061804;28;20229;-80
2022/08/18 01:31:32;;;;;;;17.57;16.10;;;;;;;20.02;83.73;99826.41;5062250;28;20205;-80
2022/08/18 01:33:59;;;;;;;18.27;16.97;;;;;;;20.03;83.85;99825.44;5060909;28;20319;-80
2022/08/18 01:36:26;;;;;;;16.50;15.30;;;;;;;20.08;83.80;99839.25;5060086;28;20221;-80
2022/08/18 01:38:54;;;;;;;14.63;13.60;;;;;;;20.18;83.45;99858.00;5061252;28;20280;-79
2022/08/18 01:41:23;;;;;;;20.10;18.70;;;;;;;19.99;84.29;99855.75;5061523;28;20271;-79
2022/08/18 01:43:49;;;;;;;20.20;18.43;;;;;;;20.02;84.55;99842.31;5060963;28;20776;-80
2022/08/18 01:46:18;;;;;;;17.50;16.20;;;;;;;19.98;85.35;99825.78;5060178;28;20637;-80
2022/08/18 01:48:45;;;;;;;25.50;23.50;;;;;;;19.86;86.67;99809.84;5060204;28;20232;-79
2022/08/18 01:51:12;;;;;;;22.40;20.37;;;;;;;19.88;87.23;99795.56;5060268;28;20201;-80
2022/08/18 01:53:39;;;;;;;25.20;23.13;;;;;;;19.91;87.47;99803.28;5061537;28;20570;-81
2022/08/18 01:56:08;;;;;;;19.67;17.63;;;;;;;20.03;86.44;99836.03;5061323;28;20626;-80
2022/08/18 01:58:36;;;;;;;22.77;20.97;;;;;;;20.10;86.46;99831.16;5061626;28;20546;-80
2022/08/18 02:01:04;;;;;;;25.40;23.30;;;;;;;20.06;86.54;99846.44;5060288;28;20209;-77
2022/08/18 02:03:34;;;;;;;28.17;25.97;;;;;;;19.93;87.37;99832.31;5061542;28;20672;-79
2022/08/18 02:06:02;;;;;;;27.10;24.93;;;;;;;19.83;88.11;99827.63;5059996;28;20232;-78
2022/08/18 02:08:30;;;;;;;28.53;25.93;;;;;;;19.88;87.98;99830.00;5061653;28;20279;-79
2022/08/18 02:10:57;;;;;;;29.80;27.03;;;;;;;19.90;87.61;99837.81;5061794;28;20205;-79
2022/08/18 02:13:25;;;;;;;27.43;25.23;;;;;;;19.91;87.56;99853.63;5061365;28;20320;-80
2022/08/18 02:15:52;;;;;;;26.17;23.90;;;;;;;20.02;86.97;99868.81;5061710;28;20209;-80
2022/08/18 02:18:21;;;;;;;25.47;23.13;;;;;;;20.01;86.68;99885.63;5061811;28;20201;-81
2022/08/18 02:20:47;;;;;;;26.97;24.80;;;;;;;20.05;86.54;99895.06;5053341;28;20647;-80
2022/08/18 02:23:14;;;;;;;28.97;26.27;;;;;;;20.08;86.65;99892.22;5062281;28;20227;-81
2022/08/18 02:25:42;;;;;;;29.53;26.97;;;;;;;20.08;86.67;99899.31;5062006;28;20205;-80
2022/08/18 02:28:09;;;;;;;30.87;28.27;;;;;;;20.08;87.17;99891.34;5061414;28;20226;-80
2022/08/18 02:30:37;;;;;;;30.73;27.70;;;;;;;20.10;86.97;99890.31;5061117;28;20227;-80
2022/08/18 02:33:04;;;;;;;31.93;28.93;;;;;;;20.18;86.61;99906.56;5061407;28;20225;-81
2022/08/18 02:35:31;;;;;;;33.00;30.00;;;;;;;20.07;87.52;99889.69;5061583;28;20217;-80
2022/08/18 02:37:59;;;;;;;34.13;30.93;;;;;;;20.17;86.74;99904.00;5062121;28;20208;-80
2022/08/18 02:40:25;;;;;;;32.10;29.13;;;;;;;20.15;86.53;99922.66;5061266;28;20601;-79
2022/08/18 02:42:53;;;;;;;32.90;29.50;;;;;;;20.26;86.51;99919.28;5059932;28;20221;-80
2022/08/18 02:45:21;;;;;;;31.60;27.93;;;;;;;20.22;86.84;99918.66;5059447;28;20281;-80
2022/08/18 02:47:53;;;;;;;29.67;27.00;;;;;;;20.11;86.90;99931.75;5059357;28;20202;-80
2022/08/18 02:50:19;;;;;;;31.80;29.00;;;;;;;19.99;88.08;99895.50;5059385;28;20225;-81
2022/08/18 02:52:46;;;;;;;37.03;33.17;;;;;;;19.84;89.17;99866.44;5059583;28;20233;-79
2022/08/18 02:55:14;;;;;;;38.73;34.73;;;;;;;19.67;90.34;99844.63;5059929;28;20212;-81
2022/08/18 02:57:42;;;;;;;39.80;35.70;;;;;;;19.73;90.20;99845.09;5059782;28;20263;-80
2022/08/18 03:00:11;;;;;;;44.07;37.10;;;;;;;19.64;91.01;99830.66;5058978;28;20209;-78
2022/08/18 03:02:38;;;;;;;41.10;36.70;;;;;;;19.73;90.85;99834.50;5059852;28;20221;-80
2022/08/18 03:05:06;;;;;;;38.50;34.37;;;;;;;19.76;90.59;99842.25;5057757;28;20947;-80
2022/08/18 03:07:33;;;;;;;40.40;36.17;;;;;;;19.73;90.49;99853.03;5058694;28;20295;-80
2022/08/18 03:09:59;;;;;;;40.77;36.33;;;;;;;19.63;91.51;99855.41;5058857;28;20233;-81
2022/08/18 03:12:26;;;;;;;35.77;32.10;;;;;;;19.83;90.08;99880.59;5059060;28;20226;-79
2022/08/18 03:14:52;;;;;;;40.43;36.13;;;;;;;19.76;89.87;99895.22;5057166;28;20252;-80
2022/08/18 03:17:19;;;;;;;43.87;37.67;;;;;;;19.68;90.56;99886.88;5058640;28;20235;-81
2022/08/18 03:19:45;;;;;;;45.97;38.73;;;;;;;19.74;90.47;99890.97;5058796;28;20227;-80
2022/08/18 03:22:13;;;;;;;37.53;32.83;;;;;;;19.90;89.90;99904.91;5058710;28;20278;-81
2022/08/18 03:24:40;;;;;;;38.73;34.67;;;;;;;19.94;89.16;99932.91;5058376;28;20209;-79
2022/08/18 03:27:07;;;;;;;44.87;36.30;;;;;;;19.97;88.90;99937.13;5057835;28;20212;-80
2022/08/18 03:29:35;;;;;;;40.33;36.07;;;;;;;19.82;89.72;99915.13;5058264;28;20264;-80
2022/08/18 03:32:03;;;;;;;44.47;39.60;;;;;;;19.86;89.56;99923.72;5058636;28;20256;-80
2022/08/18 03:34:31;;;;;;;44.53;38.67;;;;;;;19.88;89.68;99909.47;5059316;28;20225;-81
2022/08/18 03:36:58;;;;;;;43.50;38.80;;;;;;;19.93;89.22;99927.69;5060994;28;20255;-80
2022/08/18 03:39:27;;;;;;;51.60;41.13;;;;;;;19.64;91.14;99893.31;5061941;28;20248;-81
2022/08/18 03:41:55;;;;;;;48.60;40.13;;;;;;;19.75;91.53;99876.78;5060948;28;20303;-80
2022/08/18 03:44:22;;;;;;;53.07;43.37;;;;;;;19.57;92.67;99855.81;5060731;28;20233;-81
2022/08/18 03:46:50;;;;;;;50.20;39.57;;;;;;;19.56;92.66;99853.28;5060516;28;20209;-81
2022/08/18 03:49:19;;;;;;;49.10;40.53;;;;;;;19.48;92.96;99859.06;5061274;28;20278;-80
2022/08/18 03:51:46;;;;;;;47.07;39.43;;;;;;;19.56;93.13;99862.09;5060783;28;20297;-81
2022/08/18 03:54:15;;;;;;;48.77;40.07;;;;;;;19.61;92.82;99865.25;5061606;28;20412;-80
2022/08/18 03:56:45;;;;;;;40.27;35.83;;;;;;;19.74;91.78;99889.19;5061742;28;20309;-81
2022/08/18 03:59:16;;;;;;;40.10;35.73;;;;;;;19.92;90.33;99925.97;5061369;28;20208;-81
2022/08/18 04:01:44;;;;;;;46.70;39.63;;;;;;;19.88;90.26;99940.38;5061486;28;20236;-79
2022/08/18 04:04:13;;;;;;;38.67;34.57;;;;;;;20.06;89.61;99959.50;5059861;28;20229;-81
2022/08/18 04:06:43;;;;;;;47.63;40.27;;;;;;;19.92;89.64;99968.34;5059532;28;20664;-80
2022/08/18 04:09:12;;;;;;;50.67;40.23;;;;;;;19.81;90.46;99945.25;5060355;28;20243;-80
2022/08/18 04:11:41;;;;;;;57.17;41.63;;;;;;;19.49;92.57;99920.81;5059827;28;20255;-80
2022/08/18 04:14:10;;;;;;;46.53;40.57;;;;;;;19.63;92.44;99910.19;5061266;28;20229;-79
2022/08/18 04:16:38;;;;;;;50.90;41.77;;;;;;;19.73;91.96;99929.00;5061128;28;20201;-81
2022/08/18 04:19:05;;;;;;;42.80;38.17;;;;;;;19.83;91.78;99935.38;5060894;28;20204;-80
2022/08/18 04:21:34;;;;;;;40.07;35.70;;;;;;;19.89;90.98;99950.03;5060822;28;20252;-80
2022/08/18 04:24:03;;;;;;;44.63;36.83;;;;;;;19.93;90.31;99976.22;5060733;28;20249;-81
2022/08/18 04:26:31;;;;;;;48.53;39.13;;;;;;;20.04;89.84;99989.63;5061736;28;20277;-81
2022/08/18 04:28:59;;;;;;;40.50;35.97;;;;;;;20.19;88.95;100008.94;5065110;28;20675;-81
2022/08/18 04:31:28;;;;;;;37.07;33.00;;;;;;;20.29;88.42;100033.03;5064632;28;20216;-82
2022/08/18 04:33:55;;;;;;;38.30;34.17;;;;;;;20.36;87.44;100054.72;5064722;28;20229;-81
2022/08/18 04:36:22;;;;;;;43.90;36.90;;;;;;;20.41;87.06;100079.94;5064873;28;20667;-79
2022/08/18 04:38:49;;;;;;;39.63;35.27;;;;;;;20.48;86.68;100098.13;5064871;28;20205;-81
2022/08/18 04:41:16;;;;;;;39.87;35.60;;;;;;;20.51;86.32;100087.31;5061852;28;20209;-81
2022/08/18 04:43:43;;;;;;;46.23;38.60;;;;;;;20.57;85.93;100103.69;5061641;28;20248;-81
2022/08/18 04:46:10;;;;;;;43.30;38.70;;;;;;;20.65;85.37;100112.94;5062244;28;20205;-80
2022/08/18 04:48:40;;;;;;;39.47;35.27;;;;;;;20.69;85.48;100117.94;5061233;28;20292;-81
2022/08/18 04:51:08;;;;;;;41.27;37.07;;;;;;;20.75;85.18;100120.22;5061434;28;20201;-81
2022/08/18 04:53:44;;;;;;;42.37;37.87;;;;;;;20.79;85.36;100119.06;5050552;28;20217;-80
2022/08/18 04:56:14;;;;;;;42.70;38.10;;;;;;;20.64;85.90;100101.50;5052354;28;20679;-81
2022/08/18 04:58:40;;;;;;;44.57;37.73;;;;;;;20.61;86.66;100067.22;5051346;28;20688;-80
2022/08/18 05:01:08;;;;;;;44.03;37.20;;;;;;;20.31;88.18;100031.13;5050305;28;20202;-80
2022/08/18 05:03:35;;;;;;;46.73;40.93;;;;;;;20.17;89.49;100000.25;5050965;28;20217;-80
2022/08/18 05:06:04;;;;;;;50.67;43.23;;;;;;;20.05;90.49;99969.25;5051007;28;20225;-81
2022/08/18 05:08:30;;;;;;;52.27;43.20;;;;;;;20.04;90.83;99949.88;5050992;28;20197;-81
2022/08/18 05:10:58;;;;;;;47.60;40.23;;;;;;;20.08;91.00;99947.88;5050778;28;20249;-81
2022/08/18 05:13:25;;;;;;;55.57;43.87;;;;;;;20.00;91.02;99960.78;5048875;28;20251;-79
2022/08/18 05:15:56;;;;;;;52.50;42.47;;;;;;;19.91;91.94;99945.50;5050845;28;20198;-81
2022/08/18 05:18:24;;;;;;;59.60;45.03;;;;;;;19.82;92.72;99934.56;5051808;28;20202;-80
2022/08/18 05:20:51;;;;;;;64.30;46.83;;;;;;;19.70;93.61;99923.84;5056121;28;20240;-81
2022/08/18 05:23:20;;;;;;;60.23;45.83;;;;;;;19.74;93.92;99917.44;5049944;28;20240;-81
2022/08/18 05:25:47;;;;;;;60.83;47.30;;;;;;;19.88;93.23;99928.00;5051177;28;20206;-81
2022/08/18 05:28:14;;;;;;;57.20;45.70;;;;;;;20.01;92.50;99950.06;5050238;28;20202;-80
2022/08/18 05:30:40;;;;;;;58.10;43.33;;;;;;;20.14;91.81;99966.00;5051021;28;20279;-80
2022/08/18 05:33:09;;;;;;;54.57;43.93;;;;;;;20.00;92.49;99958.97;5051643;28;20281;-81
2022/08/18 05:35:41;;;;;;;54.33;42.00;;;;;;;20.08;92.26;99965.56;5050795;28;20202;-81
2022/08/18 05:38:31;;;;;;;54.53;43.57;;;;;;;19.93;93.32;99959.47;5050936;28;20199;-81
2022/08/18 05:41:08;;;;;;;54.10;44.03;;;;;;;19.84;93.95;99951.19;5052851;28;20197;-81
2022/08/18 05:43:36;;;;;;;60.97;43.77;;;;;;;19.72;94.74;99938.75;5052468;28;20216;-80
2022/08/18 05:46:05;;;;;;;52.90;42.30;;;;;;;19.91;94.31;99940.19;5051517;28;20224;-81
2022/08/18 05:48:31;;;;;;;48.73;42.07;;;;;;;20.00;93.54;99960.78;5051446;28;20766;-80
2022/08/18 05:51:01;;;;;;;45.80;39.90;;;;;;;20.16;92.50;99998.56;5054783;28;20217;-81
2022/08/18 05:58:59;;;;;;;51.90;43.47;;;;;;;20.15;93.15;99994.19;5050635;28;20443;-81
2022/08/18 06:01:31;;;;;;;52.97;43.07;;;;;;;19.99;93.36;99993.50;5051801;28;20206;-80
2022/08/18 06:04:02;;;;;;;52.90;42.23;;;;;;;20.11;94.20;99978.63;5052213;28;20221;-80
2022/08/18 06:06:31;;;;;;;50.33;42.47;;;;;;;20.13;93.17;99996.09;5052569;28;20198;-79
2022/08/18 06:09:13;;;;;;;52.27;42.70;;;;;;;20.02;94.79;99977.44;5050011;28;20202;-80
2022/08/18 06:11:40;;;;;;;54.43;43.57;;;;;;;19.94;94.87;99971.75;5051090;28;20226;-80
2022/08/18 06:14:06;;;;;;;47.87;41.80;;;;;;;19.91;94.81;99974.63;5049951;28;20221;-81
2022/08/18 06:16:48;;;;;;;51.40;43.00;;;;;;;20.02;94.84;99975.63;5048355;28;20300;-80
2022/08/18 06:19:26;;;;;;;54.43;44.13;;;;;;;20.05;95.58;99966.63;5059880;28;20598;-79
2022/08/18 06:22:01;;;;;;;49.57;41.87;;;;;;;20.20;94.33;99985.97;5052015;28;20243;-81
2022/08/18 06:24:35;;;;;;;50.57;41.30;;;;;;;20.21;92.72;100022.94;5060024;28;20229;-79
2022/08/18 06:27:11;;;;;;;46.73;40.37;;;;;;;20.09;92.37;100025.56;5060068;28;20215;-79
2022/08/18 06:29:50;;;;;;;49.90;40.43;;;;;;;20.10;93.11;100025.47;5059456;28;20283;-80
2022/08/18 06:32:27;;;;;;;48.23;41.40;;;;;;;20.22;92.78;100029.13;5060006;28;20613;-80
2022/08/18 06:35:11;;;;;;;46.03;40.13;;;;;;;20.28;91.84;100051.69;5059633;28;20216;-80
2022/08/18 06:40:33;;;;;;;45.60;38.73;;;;;;;20.43;91.12;100080.72;5061012;28;20203;-80
2022/08/18 06:43:00;;;;;;;47.10;38.50;;;;;;;20.60;90.39;100084.94;5061485;28;20229;-80
2022/08/18 06:45:33;;;;;;;44.73;39.70;;;;;;;20.47;90.14;100105.22;5060495;28;20213;-80
2022/08/18 06:48:06;;;;;;;49.87;39.80;;;;;;;20.60;89.40;100119.41;5060213;28;20207;-78
2022/08/18 06:50:41;;;;;;;50.10;41.60;;;;;;;20.52;89.41;100134.94;5060022;28;20275;-79
2022/08/18 06:53:08;;;;;;;48.20;40.13;;;;;;;20.53;90.34;100111.91;5059648;28;20255;-79
2022/08/18 06:55:38;;;;;;;45.77;40.73;;;;;;;20.69;90.22;100106.47;5060506;28;20228;-81
2022/08/18 06:58:19;;;;;;;43.60;38.93;;;;;;;20.87;89.10;100121.19;5060398;28;20206;-79
2022/08/18 07:00:58;;;;;;;44.50;39.60;;;;;;;20.82;89.14;100133.91;5061449;28;20204;-81
2022/08/18 07:03:41;;;;;;;46.83;39.27;;;;;;;20.83;89.36;100130.28;5060794;28;20229;-80
2022/08/18 07:06:10;;;;;;;44.50;39.70;;;;;;;20.76;87.92;100166.16;5059343;28;20209;-80
2022/08/18 07:08:40;;;;;;;42.97;38.53;;;;;;;20.91;86.05;100215.56;5059934;28;20202;-80
2022/08/18 07:11:20;;;;;;;39.23;35.17;;;;;;;21.02;85.59;100236.06;5060773;28;20647;-79
2022/08/18 07:13:49;;;;;;;38.73;34.70;;;;;;;21.04;84.38;100263.34;5060438;28;20223;-80
2022/08/18 07:16:21;;;;;;;37.17;33.50;;;;;;;21.15;83.03;100287.41;5059026;28;20386;-78
2022/08/18 07:18:48;;;;;;;35.87;32.67;;;;;;;21.17;83.30;100298.75;5058939;28;20279;-79
2022/08/18 07:21:24;;;;;;;34.07;31.03;;;;;;;21.27;82.56;100314.06;5060269;28;20201;-79
2022/08/18 07:23:59;;;;;;;34.90;31.57;;;;;;;21.42;82.12;100329.84;5060596;28;20271;-81
2022/08/18 07:26:27;;;;;;;34.30;31.23;;;;;;;21.44;81.11;100353.69;5061155;28;20204;-80
2022/08/18 07:28:54;;;;;;;35.60;32.17;;;;;;;21.28;81.29;100353.81;5061041;28;20210;-79
2022/08/18 07:31:34;;;;;;;35.07;31.63;;;;;;;21.18;80.98;100360.66;5059849;28;20279;-79
2022/08/18 07:34:04;;;;;;;34.23;30.93;;;;;;;21.37;80.77;100365.66;5061575;28;20320;-80
2022/08/18 07:36:35;;;;;;;32.60;29.63;;;;;;;21.48;80.09;100380.91;5061187;28;20201;-80
2022/08/18 07:39:07;;;;;;;35.30;31.57;;;;;;;21.64;79.89;100372.78;5062928;28;20293;-80
2022/08/18 07:41:42;;;;;;;34.57;31.13;;;;;;;21.64;80.18;100370.13;5061424;28;20209;-79
2022/08/18 07:44:17;;;;;;;34.20;31.20;;;;;;;21.61;80.25;100358.75;5060057;28;20256;-80
2022/08/18 07:46:50;;;;;;;35.73;32.40;;;;;;;21.60;79.74;100365.03;5054742;28;20534;-80
2022/08/18 07:49:20;;;;;;;35.37;31.70;;;;;;;21.49;80.22;100375.50;4352433;28;10000772;-80
2022/08/18 07:51:50;;;;;;;36.80;33.07;;;;;;;21.55;80.52;100345.03;5054681;28;20777;-79
2022/08/18 07:54:27;;;;;;;34.10;30.80;;;;;;;21.83;80.00;100362.63;5061738;28;20252;-79
2022/08/18 07:57:03;;;;;;;33.33;29.87;;;;;;;21.87;78.04;100390.69;5064790;28;20276;-76
2022/08/18 07:59:39;;;;;;;33.83;30.80;;;;;;;21.72;77.77;100431.56;5056814;28;20258;-79
2022/08/18 08:02:20;;;;;;;31.33;28.63;;;;;;;21.64;78.57;100400.19;5056342;28;20333;-78
2022/08/18 08:04:56;;;;;;;30.87;28.07;;;;;;;21.67;79.09;100383.22;5058224;28;20206;-79
2022/08/18 08:07:29;;;;;;;33.17;29.83;;;;;;;21.74;78.37;100397.78;5058251;28;20205;-79
2022/08/18 08:10:10;;;;;;;31.33;28.53;;;;;;;21.83;77.86;100412.28;5046183;28;20255;-79
2022/08/18 08:12:47;;;;;;;32.17;29.20;;;;;;;21.83;77.70;100417.59;5046866;28;20225;-78
2022/08/18 08:15:21;;;;;;;31.00;28.47;;;;;;;21.88;77.20;100428.75;5044642;28;20202;-80
2022/08/18 08:17:53;;;;;;;30.27;27.77;;;;;;;21.93;76.31;100456.72;5040050;28;20206;-79
2022/08/18 08:20:26;;;;;;;30.37;27.87;;;;;;;21.93;76.63;100453.22;5057038;28;20263;-79
2022/08/18 08:23:10;;;;;;;29.90;27.63;;;;;;;21.96;77.45;100427.28;5040587;28;20256;-78
2022/08/18 08:25:51;;;;;;;31.47;28.60;;;;;;;22.10;76.84;100436.13;5040377;28;20210;-77
2022/08/18 08:28:30;;;;;;;33.03;30.23;;;;;;;22.11;76.02;100456.47;5039081;28;20210;-78
2022/08/18 08:31:08;;;;;;;32.13;29.23;;;;;;;22.23;76.10;100455.63;5038163;28;20236;-79
2022/08/18 08:33:41;;;;;;;32.50;29.73;;;;;;;22.37;75.22;100468.03;5039100;28;20735;-78
2022/08/18 08:36:11;;;;;;;31.00;28.20;;;;;;;22.32;74.98;100484.31;5038691;28;20213;-78
2022/08/18 08:38:44;;;;;;;30.53;28.13;;;;;;;22.25;75.59;100482.16;5037791;28;20206;-78
2022/08/18 08:41:18;;;;;;;28.13;26.03;;;;;;;22.44;75.63;100463.13;5038428;28;20210;-80
2022/08/18 08:43:51;;;;;;;31.33;28.43;;;;;;;22.59;74.37;100499.34;5039388;28;20233;-78
2022/08/18 08:46:21;;;;;;;31.73;29.13;;;;;;;22.64;74.17;100512.34;5039816;28;20264;-80
2022/08/18 08:48:59;;;;;;;31.57;28.83;;;;;;;22.75;74.31;100515.09;5043398;28;20264;-80
2022/08/18 08:51:33;;;;;;;37.50;33.70;;;;;;;22.91;75.55;100464.31;5059023;28;20221;-79
2022/08/18 08:54:07;;;;;;;38.13;34.60;;;;;;;22.92;75.87;100442.06;5060223;28;20237;-80
2022/08/18 08:56:40;;;;;;;36.40;32.83;;;;;;;22.85;76.08;100423.00;5059656;28;20209;-78
2022/08/18 08:59:11;;;;;;;37.60;33.97;;;;;;;22.88;74.88;100448.56;5059479;28;20210;-80
2022/08/18 09:01:46;;;;;;;37.97;34.17;;;;;;;22.68;76.21;100428.69;5060635;28;20255;-80
2022/08/18 09:04:23;;;;;;;34.33;31.13;;;;;;;22.70;76.02;100410.78;5060110;28;20229;-80
2022/08/18 09:07:00;;;;;;;34.90;31.77;;;;;;;22.60;75.48;100424.72;5060424;28;20239;-78
2022/08/18 09:09:51;;;;;;;36.07;32.57;;;;;;;22.55;75.13;100452.59;5060598;28;20213;-80
2022/08/18 09:12:36;;;;;;;35.03;31.67;;;;;;;22.49;76.41;100399.84;5059669;28;20236;-80
2022/08/18 09:15:20;;;;;;;36.13;32.63;;;;;;;22.54;77.06;100400.38;5060532;28;20596;-79
2022/08/18 09:18:13;;;;;;;36.20;32.80;;;;;;;22.58;76.83;100391.22;5059828;28;20686;-79
2022/08/18 09:20:51;;;;;;;35.60;31.90;;;;;;;22.76;76.32;100421.00;5060088;28;20232;-80
2022/08/18 09:23:21;;;;;;;34.53;31.37;;;;;;;22.84;75.17;100444.44;5060740;28;20225;-80
2022/08/18 09:25:50;;;;;;;33.80;30.53;;;;;;;22.86;75.20;100446.00;5058192;28;20213;-78
2022/08/18 09:28:21;;;;;;;33.77;30.67;;;;;;;22.87;73.81;100498.28;5058470;28;20220;-81
2022/08/18 09:31:13;;;;;;;33.93;30.87;;;;;;;22.92;73.14;100525.44;5059455;28;20335;-80
2022/08/18 09:34:01;;;;;;;30.57;27.53;;;;;;;23.02;72.85;100546.09;5060295;28;20248;-81
2022/08/18 09:36:38;;;;;;;34.60;31.43;;;;;;;22.81;72.71;100565.25;5060005;28;20209;-80
2022/08/18 09:42:10;;;;;;;35.80;32.23;;;;;;;22.62;73.82;100504.47;5060275;28;20203;-81
2022/08/18 09:45:07;;;;;;;31.93;29.23;;;;;;;22.74;73.05;100516.06;5059880;28;20212;-81
2022/08/18 09:48:01;;;;;;;31.23;28.50;;;;;;;22.69;73.17;100502.22;5060270;28;20235;-80
2022/08/18 09:50:52;;;;;;;34.13;30.93;;;;;;;22.64;73.91;100491.91;5058854;28;20233;-81
2022/08/18 09:53:51;;;;;;;31.57;28.90;;;;;;;22.64;74.00;100485.72;5058895;28;20232;-81
2022/08/18 09:56:38;;;;;;;30.60;27.87;;;;;;;22.69;73.82;100489.75;5059078;28;20285;-80
2022/08/18 09:59:05;;;;;;;29.23;26.50;;;;;;;22.77;73.48;100502.53;5058731;28;20209;-80
2022/08/18 10:01:40;;;;;;;30.63;28.03;;;;;;;22.88;72.46;100531.09;5059580;28;20197;-80
2022/08/18 10:04:34;;;;;;;29.23;27.00;;;;;;;23.09;71.69;100563.38;5059776;28;20229;-79
2022/08/18 10:07:28;;;;;;;28.93;26.50;;;;;;;23.18;69.73;100597.38;5059049;28;20228;-78
2022/08/18 10:10:12;;;;;;;25.03;23.00;;;;;;;23.39;69.21;100635.84;5059653;28;20896;-79
2022/08/18 10:13:03;;;;;;;24.93;22.90;;;;;;;23.39;69.32;100633.16;5060009;28;20225;-81
2022/08/18 10:15:39;;;;;;;27.20;25.07;;;;;;;23.14;69.85;100631.34;5046809;28;20205;-80
2022/08/18 10:18:34;;;;;;;28.00;25.60;;;;;;;23.09;69.86;100612.19;5058100;28;20216;-81
2022/08/18 10:21:09;;;;;;;25.97;24.07;;;;;;;23.18;69.44;100613.34;5049985;28;20201;-80
2022/08/18 10:23:48;;;;;;;23.13;21.47;;;;;;;23.26;68.21;100650.09;5057735;28;20236;-80
2022/08/18 10:26:58;;;;;;;24.00;22.17;;;;;;;23.44;68.73;100642.66;5056703;28;20205;-80
2022/08/18 10:29:59;;;;;;;23.37;21.77;;;;;;;23.60;66.45;100678.75;5057456;28;20209;-79
2022/08/18 10:32:45;;;;;;;22.07;20.40;;;;;;;23.64;66.09;100721.22;5057039;28;20241;-81
2022/08/18 10:35:52;;;;;;;21.20;19.77;;;;;;;23.73;65.05;100758.75;5056093;28;20219;-78
2022/08/18 10:38:28;;;;;;;20.07;18.57;;;;;;;23.77;64.63;100778.06;5056432;28;20645;-80
2022/08/18 10:41:00;;;;;;;19.53;18.13;;;;;;;23.89;63.18;100774.56;5056827;28;20205;-80
2022/08/18 10:43:35;;;;;;;17.63;16.43;;;;;;;24.18;63.47;100793.00;5057741;28;20229;-81
2022/08/18 10:46:01;;;;;;;21.70;20.10;;;;;;;24.41;65.31;100746.00;5056915;28;20239;-79
2022/08/18 10:48:30;;;;;;;22.83;21.23;;;;;;;24.51;64.86;100739.06;5057165;28;20214;-79
2022/08/18 10:51:07;;;;;;;22.93;21.10;;;;;;;24.76;64.71;100723.94;5056671;28;20225;-80
2022/08/18 10:53:44;;;;;;;20.60;19.00;;;;;;;24.93;64.34;100746.69;5056588;28;20782;-78
2022/08/18 10:56:25;;;;;;;19.37;17.93;;;;;;;24.89;62.13;100790.63;5056986;28;20202;-79
2022/08/18 10:59:12;;;;;;;20.93;19.53;;;;;;;24.98;61.98;100838.88;5056327;28;20292;-81
2022/08/18 11:02:06;;;;;;;20.60;18.90;;;;;;;25.10;62.20;100842.47;5056334;28;20189;-81
2022/08/18 11:04:37;;;;;;;18.97;17.67;;;;;;;25.14;62.03;100829.75;5050617;28;20657;-81
2022/08/18 11:07:10;;;;;;;19.17;17.67;;;;;;;25.13;62.25;100820.00;5058352;28;20212;-80
2022/08/18 11:09:40;;;;;;;21.60;20.00;;;;;;;25.22;61.30;100840.75;5058982;28;20234;-80
2022/08/18 11:12:07;;;;;;;22.70;21.10;;;;;;;24.58;61.95;100838.25;5055649;28;20234;-80
2022/08/18 11:15:00;;;;;;;18.87;17.57;;;;;;;25.03;62.54;100781.59;5058649;28;20216;-80
2022/08/18 11:17:41;;;;;;;18.57;17.23;;;;;;;25.41;60.56;100823.31;5058961;28;20208;-79
2022/08/18 11:20:11;;;;;;;16.27;15.17;;;;;;;25.46;59.30;100877.28;5058539;28;20212;-80
2022/08/18 11:22:37;;;;;;;18.67;17.37;;;;;;;25.82;58.95;100870.97;5058782;28;20242;-81
2022/08/18 11:25:23;;;;;;;17.47;16.27;;;;;;;25.92;56.52;100941.56;5057739;28;20231;-80
2022/08/18 11:27:50;;;;;;;17.23;16.13;;;;;;;25.43;55.81;100979.09;5056762;28;20212;-80
2022/08/18 11:30:18;;;;;;;14.73;13.83;;;;;;;25.81;57.10;100962.03;5058265;28;20245;-79
2022/08/18 11:32:45;;;;;;;18.97;17.60;;;;;;;25.94;57.17;100944.97;5057771;28;20756;-79
2022/08/18 11:35:17;;;;;;;17.00;15.90;;;;;;;25.84;56.34;100937.72;5057998;28;20265;-80
2022/08/18 11:37:46;;;;;;;16.17;14.87;;;;;;;26.47;55.07;100981.13;5061831;28;20667;-80
2022/08/18 11:40:26;;;;;;;18.57;17.37;;;;;;;27.48;53.17;101024.09;5064095;28;20205;-81
2022/08/18 11:42:57;;;;;;;14.87;13.97;;;;;;;27.43;51.61;101152.34;5061827;28;20228;-80
2022/08/18 11:45:32;;;;;;;13.53;12.63;;;;;;;27.22;49.75;101178.09;5060789;28;20209;-80
2022/08/18 11:48:02;;;;;;;13.00;12.30;;;;;;;27.94;49.34;101140.25;5061145;28;20204;-81
2022/08/18 11:50:31;;;;;;;15.00;13.97;;;;;;;28.86;46.80;101241.94;5062495;28;20282;-79
2022/08/18 11:53:14;;;;;;;12.77;11.97;;;;;;;28.78;46.55;101272.16;5062280;28;20259;-80
2022/08/18 11:55:41;;;;;;;13.63;12.80;;;;;;;29.22;45.70;101251.47;5061001;28;20217;-81